createdAt,value
2019-03-16T00:00:09.746Z,11.00
2019-03-16T00:02:43.455Z,11.00
2019-03-16T00:05:17.047Z,11.00
2019-03-16T00:07:50.628Z,11.00
2019-03-16T00:10:24.399Z,11.00
2019-03-16T00:12:58.087Z,11.00
2019-03-16T00:15:31.685Z,10.90
2019-03-16T00:18:06.103Z,11.00
2019-03-16T00:20:39.733Z,10.90
2019-03-16T00:23:13.531Z,11.00
2019-03-16T00:25:47.199Z,11.00
2019-03-16T00:28:21.554Z,11.00
2019-03-16T00:30:55.288Z,11.00
2019-03-16T00:33:28.858Z,11.10
2019-03-16T00:36:02.619Z,11.10
2019-03-16T00:38:36.223Z,11.00
2019-03-16T00:41:09.925Z,11.10
2019-03-16T00:43:43.527Z,11.10
2019-03-16T00:46:17.104Z,11.10
2019-03-16T00:48:51.707Z,11.00
2019-03-16T00:51:26.192Z,11.00
2019-03-16T00:54:00.031Z,11.00
2019-03-16T00:56:33.805Z,11.00
2019-03-16T00:59:07.486Z,11.00
2019-03-16T01:01:41.129Z,11.00
2019-03-16T01:04:15.547Z,11.00
2019-03-16T01:06:49.895Z,11.00
2019-03-16T01:09:23.569Z,11.00
2019-03-16T01:11:57.884Z,11.00
2019-03-16T01:14:31.476Z,11.00
2019-03-16T01:17:05.090Z,11.00
2019-03-16T01:19:39.488Z,11.00
2019-03-16T01:22:13.145Z,11.00
2019-03-16T01:24:46.719Z,11.00
2019-03-16T01:27:20.317Z,11.10
2019-03-16T01:29:53.937Z,11.10
2019-03-16T01:32:39.734Z,11.00
2019-03-16T01:35:01.249Z,11.00
2019-03-16T01:37:35.015Z,11.10
2019-03-16T01:40:08.697Z,11.10
2019-03-16T01:42:42.293Z,11.00
2019-03-16T01:45:16.143Z,11.00
2019-03-16T01:47:49.774Z,11.00
2019-03-16T01:50:23.392Z,11.00
2019-03-16T01:52:56.967Z,11.00
2019-03-16T01:55:30.589Z,11.00
2019-03-16T01:58:05.465Z,11.10
2019-03-16T02:00:39.164Z,11.10
2019-03-16T02:03:12.679Z,11.10
2019-03-16T02:05:46.451Z,11.10
2019-03-16T02:08:20.168Z,11.10
2019-03-16T02:10:53.779Z,11.10
2019-03-16T02:13:27.394Z,11.10
2019-03-16T02:16:10.833Z,11.10
2019-03-16T02:18:34.764Z,11.10
2019-03-16T02:21:08.602Z,11.10
2019-03-16T02:23:42.319Z,11.20
2019-03-16T02:26:15.883Z,11.20
2019-03-16T02:28:49.430Z,11.20
2019-03-16T02:31:23.097Z,11.20
2019-03-16T02:33:56.905Z,11.20
2019-03-16T02:36:30.567Z,11.20
2019-03-16T02:39:04.940Z,11.20
2019-03-16T02:41:38.514Z,11.20
2019-03-16T02:44:12.845Z,11.20
2019-03-16T02:46:46.600Z,11.20
2019-03-16T02:49:21.000Z,11.20
2019-03-16T02:51:54.569Z,11.20
2019-03-16T02:54:28.986Z,11.30
2019-03-16T02:57:02.762Z,11.30
2019-03-16T02:59:37.137Z,11.40
2019-03-16T03:02:11.558Z,11.40
2019-03-16T03:04:46.239Z,11.30
2019-03-16T03:07:19.739Z,11.40
2019-03-16T03:09:53.505Z,11.30
2019-03-16T03:12:27.249Z,11.40
2019-03-16T03:15:00.890Z,11.40
2019-03-16T03:17:34.462Z,11.40
2019-03-16T03:20:08.798Z,11.40
2019-03-16T03:22:42.370Z,11.40
2019-03-16T03:25:16.036Z,11.40
2019-03-16T03:27:49.599Z,11.30
2019-03-16T03:30:23.163Z,11.30
2019-03-16T03:32:57.456Z,11.30
2019-03-16T03:35:31.045Z,11.30
2019-03-16T03:38:04.814Z,11.30
2019-03-16T03:40:38.644Z,11.30
2019-03-16T03:43:12.323Z,11.30
2019-03-16T03:45:46.629Z,11.30
2019-03-16T03:48:20.367Z,11.30
2019-03-16T03:50:53.932Z,11.30
2019-03-16T03:53:28.373Z,11.20
2019-03-16T03:56:02.812Z,11.10
2019-03-16T03:58:36.380Z,11.10
2019-03-16T04:01:09.917Z,11.10
2019-03-16T04:03:43.444Z,11.10
2019-03-16T04:06:17.212Z,11.10
2019-03-16T04:08:51.531Z,11.10
2019-03-16T04:11:25.097Z,11.10
2019-03-16T04:13:58.671Z,11.10
2019-03-16T04:16:32.489Z,11.10
2019-03-16T04:19:06.210Z,11.00
2019-03-16T04:21:39.864Z,11.00
2019-03-16T04:24:14.391Z,11.00
2019-03-16T04:26:48.125Z,11.00
2019-03-16T04:29:21.674Z,11.00
2019-03-16T04:31:56.028Z,11.00
2019-03-16T04:34:29.977Z,10.90
2019-03-16T04:37:03.366Z,11.00
2019-03-16T04:39:36.930Z,11.00
2019-03-16T04:42:10.736Z,11.00
2019-03-16T04:44:44.362Z,10.90
2019-03-16T04:47:17.987Z,10.90
2019-03-16T04:49:51.749Z,10.90
2019-03-16T04:52:26.050Z,10.90
2019-03-16T04:54:59.838Z,10.90
2019-03-16T04:57:33.595Z,10.90
2019-03-16T05:00:08.698Z,10.80
2019-03-16T05:02:42.450Z,10.80
2019-03-16T05:05:15.985Z,10.90
2019-03-16T05:07:50.289Z,10.90
2019-03-16T05:10:23.863Z,10.80
2019-03-16T05:12:57.669Z,10.80
2019-03-16T05:15:31.260Z,10.90
2019-03-16T05:18:04.930Z,10.90
2019-03-16T05:20:38.612Z,10.90
2019-03-16T05:23:12.367Z,10.90
2019-03-16T05:25:45.964Z,10.90
2019-03-16T05:28:20.282Z,10.90
2019-03-16T05:30:53.821Z,10.90
2019-03-16T05:33:27.457Z,10.90
2019-03-16T05:36:01.408Z,10.90
2019-03-16T05:38:34.997Z,10.90
2019-03-16T05:41:08.534Z,10.90
2019-03-16T05:43:42.272Z,10.90
2019-03-16T05:46:15.871Z,10.90
2019-03-16T05:48:49.500Z,10.90
2019-03-16T05:51:23.147Z,10.80
2019-03-16T05:53:56.843Z,10.90
2019-03-16T05:56:30.378Z,10.90
2019-03-16T05:59:03.940Z,10.90
2019-03-16T06:01:37.546Z,10.90
2019-03-16T06:04:12.172Z,10.80
2019-03-16T06:06:45.768Z,10.80
2019-03-16T06:09:20.062Z,10.80
2019-03-16T06:11:53.755Z,10.90
2019-03-16T06:14:27.518Z,10.90
2019-03-16T06:17:01.419Z,10.80
2019-03-16T06:19:35.155Z,10.80
2019-03-16T06:22:08.763Z,10.90
2019-03-16T06:24:42.310Z,10.90
2019-03-16T06:27:16.626Z,10.80
2019-03-16T06:29:50.390Z,10.80
2019-03-16T06:32:24.018Z,10.80
2019-03-16T06:34:57.630Z,10.90
2019-03-16T06:37:32.062Z,10.90
2019-03-16T06:40:06.514Z,10.90
2019-03-16T06:42:40.897Z,10.90
2019-03-16T06:45:14.435Z,10.90
2019-03-16T06:47:47.997Z,10.90
2019-03-16T06:50:21.586Z,11.00
2019-03-16T06:52:55.120Z,11.00
2019-03-16T06:55:28.706Z,11.00
2019-03-16T06:58:02.363Z,11.10
2019-03-16T07:00:35.907Z,11.10
2019-03-16T07:03:09.439Z,11.20
2019-03-16T07:05:43.001Z,11.20
2019-03-16T07:08:17.390Z,11.20
2019-03-16T07:10:50.911Z,11.20
2019-03-16T07:13:24.459Z,11.20
2019-03-16T07:15:58.051Z,11.20
2019-03-16T07:18:32.484Z,11.20
2019-03-16T07:21:06.766Z,11.20
2019-03-16T07:23:40.366Z,11.20
2019-03-16T07:26:15.322Z,11.20
2019-03-16T07:28:47.499Z,11.20
2019-03-16T07:31:21.054Z,11.30
2019-03-16T07:33:54.607Z,11.30
2019-03-16T07:36:28.229Z,11.40
2019-03-16T07:39:01.889Z,11.40
2019-03-16T07:41:35.627Z,11.40
2019-03-16T07:44:09.340Z,11.40
2019-03-16T07:46:43.942Z,11.40
2019-03-16T07:49:17.668Z,11.30
2019-03-16T07:51:51.538Z,11.40
2019-03-16T07:54:25.261Z,11.40
2019-03-16T07:56:58.859Z,11.50
2019-03-16T07:59:32.694Z,11.50
2019-03-16T08:02:06.300Z,11.60
2019-03-16T08:04:43.395Z,11.60
2019-03-16T08:07:14.618Z,11.60
2019-03-16T08:09:48.386Z,11.60
2019-03-16T08:12:22.147Z,11.60
2019-03-16T08:14:56.527Z,11.70
2019-03-16T08:17:30.214Z,11.60
2019-03-16T08:20:04.980Z,11.60
2019-03-16T08:22:38.744Z,11.60
2019-03-16T08:25:12.343Z,11.50
2019-03-16T08:27:53.901Z,11.60
2019-03-16T08:30:23.466Z,11.60
2019-03-16T08:32:54.670Z,11.70
2019-03-16T08:35:28.336Z,11.70
2019-03-16T08:38:01.995Z,11.80
2019-03-16T08:40:35.592Z,11.70
2019-03-16T08:43:09.914Z,11.70
2019-03-16T08:45:43.710Z,11.70
2019-03-16T08:48:22.707Z,11.70
2019-03-16T08:50:51.130Z,11.70
2019-03-16T08:53:24.951Z,11.80
2019-03-16T08:55:58.517Z,12.00
2019-03-16T08:58:32.078Z,12.10
2019-03-16T09:01:05.631Z,12.20
2019-03-16T09:03:43.922Z,12.20
2019-03-16T09:06:12.844Z,12.20
2019-03-16T09:08:46.450Z,12.20
2019-03-16T09:11:20.105Z,12.30
2019-03-16T09:13:53.691Z,12.30
2019-03-16T09:16:28.035Z,12.20
2019-03-16T09:19:01.680Z,12.20
2019-03-16T09:21:35.224Z,12.10
2019-03-16T09:24:08.850Z,12.20
2019-03-16T09:26:42.633Z,12.20
2019-03-16T09:29:16.236Z,12.10
2019-03-16T09:31:49.978Z,12.10
2019-03-16T09:34:23.588Z,12.20
2019-03-16T09:36:57.388Z,12.20
2019-03-16T09:39:30.950Z,12.20
2019-03-16T09:42:05.521Z,12.20
2019-03-16T09:44:39.847Z,12.20
2019-03-16T09:47:14.263Z,12.10
2019-03-16T09:49:47.957Z,12.10
2019-03-16T09:52:21.851Z,11.90
2019-03-16T09:54:56.402Z,11.60
2019-03-16T09:57:30.060Z,11.60
2019-03-16T10:00:03.641Z,11.40
2019-03-16T10:02:38.119Z,11.40
2019-03-16T10:05:12.702Z,11.50
2019-03-16T10:07:46.373Z,11.50
2019-03-16T10:10:20.111Z,11.60
2019-03-16T10:12:53.646Z,11.70
2019-03-16T10:15:27.734Z,11.60
2019-03-16T10:18:01.382Z,11.70
2019-03-16T10:20:35.155Z,11.70
2019-03-16T10:23:09.673Z,11.70
2019-03-16T10:25:44.304Z,11.80
2019-03-16T10:28:18.032Z,11.80
2019-03-16T10:30:51.808Z,11.90
2019-03-16T10:33:25.546Z,11.80
2019-03-16T10:35:59.119Z,11.70
2019-03-16T10:38:32.703Z,11.80
2019-03-16T10:41:06.290Z,11.90
2019-03-16T10:43:39.846Z,12.00
2019-03-16T10:46:13.526Z,12.00
2019-03-16T10:48:47.311Z,12.00
2019-03-16T10:51:21.617Z,12.10
2019-03-16T10:53:55.391Z,12.10
2019-03-16T10:56:29.054Z,12.10
2019-03-16T10:59:03.398Z,12.20
2019-03-16T11:01:36.966Z,12.20
2019-03-16T11:04:10.755Z,12.10
2019-03-16T11:06:44.428Z,12.20
2019-03-16T11:09:18.829Z,13.50
2019-03-16T11:11:52.425Z,13.50
2019-03-16T11:14:26.730Z,14.70
2019-03-16T11:17:00.285Z,14.60
2019-03-16T11:19:33.832Z,15.50
2019-03-16T11:22:08.336Z,14.30
2019-03-16T11:24:41.988Z,14.30
2019-03-16T11:27:17.112Z,14.20
2019-03-16T11:29:49.331Z,14.10
2019-03-16T11:32:23.238Z,13.80
2019-03-16T11:34:56.879Z,13.70
2019-03-16T11:37:31.254Z,20.40
2019-03-16T11:40:13.562Z,20.30
2019-03-16T11:42:47.280Z,22.90
2019-03-16T11:45:20.810Z,23.20
2019-03-16T11:47:54.622Z,21.20
2019-03-16T11:50:28.325Z,22.50
2019-03-16T11:53:02.797Z,19.30
2019-03-16T11:55:36.584Z,19.20
2019-03-16T11:58:10.324Z,17.60
2019-03-16T12:00:43.931Z,16.30
2019-03-16T12:03:17.508Z,15.70
2019-03-16T12:05:51.129Z,15.30
2019-03-16T12:08:24.769Z,15.40
2019-03-16T12:10:58.463Z,15.50
2019-03-16T12:13:32.192Z,15.00
2019-03-16T12:16:05.968Z,14.80
2019-03-16T12:18:40.519Z,14.70
2019-03-16T12:21:14.063Z,14.60
2019-03-16T12:23:47.673Z,14.90
2019-03-16T12:26:21.312Z,15.10
2019-03-16T12:28:55.120Z,15.30
2019-03-16T12:31:28.831Z,15.10
2019-03-16T12:34:02.616Z,14.90
2019-03-16T12:36:36.135Z,14.80
2019-03-16T12:39:09.777Z,15.20
2019-03-16T12:41:43.501Z,15.30
2019-03-16T12:44:17.276Z,15.50
2019-03-16T12:46:50.983Z,15.40
2019-03-16T12:49:24.742Z,15.00
2019-03-16T12:51:58.413Z,15.10
2019-03-16T12:54:32.011Z,15.10
2019-03-16T12:57:06.329Z,15.10
2019-03-16T12:59:46.705Z,15.10
2019-03-16T13:02:13.751Z,15.40
2019-03-16T13:04:47.384Z,15.50
2019-03-16T13:07:20.951Z,15.20
2019-03-16T13:09:54.503Z,15.00
2019-03-16T13:12:28.899Z,14.70
2019-03-16T13:15:03.424Z,14.80
2019-03-16T13:17:37.052Z,14.80
2019-03-16T13:20:10.825Z,14.90
2019-03-16T13:22:44.589Z,14.80
2019-03-16T13:25:18.432Z,14.80
2019-03-16T13:27:52.923Z,14.80
2019-03-16T13:30:26.586Z,14.80
2019-03-16T13:33:00.349Z,14.80
2019-03-16T13:35:34.007Z,14.90
2019-03-16T13:38:08.409Z,14.70
2019-03-16T13:40:42.843Z,14.70
2019-03-16T13:43:16.481Z,14.70
2019-03-16T13:45:50.262Z,14.60
2019-03-16T13:48:23.876Z,14.30
2019-03-16T13:50:57.589Z,14.30
2019-03-16T13:53:32.725Z,14.10
2019-03-16T13:56:05.717Z,14.00
2019-03-16T13:58:40.767Z,14.00
2019-03-16T14:01:12.958Z,14.10
2019-03-16T14:03:47.488Z,14.40
2019-03-16T14:06:21.987Z,14.50
2019-03-16T14:08:55.584Z,14.50
2019-03-16T14:11:29.408Z,14.40
2019-03-16T14:14:03.124Z,14.20
2019-03-16T14:16:36.903Z,14.10
2019-03-16T14:19:10.591Z,14.30
2019-03-16T14:21:44.285Z,14.50
2019-03-16T14:24:17.935Z,14.50
2019-03-16T14:26:51.678Z,14.60
2019-03-16T14:29:26.028Z,14.30
2019-03-16T14:32:00.450Z,14.40
2019-03-16T14:34:34.217Z,14.40
2019-03-16T14:37:07.982Z,14.70
2019-03-16T14:39:41.685Z,14.60
2019-03-16T14:42:15.926Z,14.50
2019-03-16T14:44:50.363Z,14.40
2019-03-16T14:47:24.071Z,14.30
2019-03-16T14:49:57.819Z,14.10
2019-03-16T14:52:31.443Z,14.20
2019-03-16T14:55:05.200Z,14.30
2019-03-16T14:57:38.804Z,14.30
2019-03-16T15:00:13.308Z,14.30
2019-03-16T15:02:47.041Z,14.20
2019-03-16T15:05:21.028Z,14.00
2019-03-16T15:07:55.534Z,13.90
2019-03-16T15:10:29.172Z,13.90
2019-03-16T15:13:02.926Z,14.00
2019-03-16T15:15:36.697Z,13.90
2019-03-16T15:18:10.971Z,13.70
2019-03-16T15:20:44.790Z,13.70
2019-03-16T15:23:18.414Z,13.80
2019-03-16T15:25:52.201Z,13.90
2019-03-16T15:28:25.814Z,14.00
2019-03-16T15:31:00.103Z,13.90
2019-03-16T15:33:33.710Z,13.80
2019-03-16T15:36:07.603Z,13.80
2019-03-16T15:38:41.306Z,13.80
2019-03-16T15:41:14.900Z,13.70
2019-03-16T15:43:48.623Z,13.80
2019-03-16T15:46:22.144Z,13.90
2019-03-16T15:48:56.000Z,13.80
2019-03-16T15:51:29.618Z,13.70
2019-03-16T15:54:03.374Z,13.70
2019-03-16T15:56:36.954Z,13.60
2019-03-16T15:59:10.822Z,13.70
2019-03-16T16:01:44.567Z,13.50
2019-03-16T16:04:18.105Z,13.50
2019-03-16T16:06:51.961Z,13.50
2019-03-16T16:09:25.875Z,13.40
2019-03-16T16:11:59.662Z,13.40
2019-03-16T16:14:33.661Z,13.30
2019-03-16T16:17:07.477Z,13.30
2019-03-16T16:19:42.152Z,13.20
2019-03-16T16:22:17.213Z,13.10
2019-03-16T16:24:49.561Z,13.10
2019-03-16T16:27:24.295Z,13.10
2019-03-16T16:29:57.900Z,13.20
2019-03-16T16:32:31.522Z,13.20
2019-03-16T16:35:05.309Z,13.10
2019-03-16T16:37:39.072Z,13.10
2019-03-16T16:40:15.469Z,13.20
2019-03-16T16:42:49.209Z,13.20
2019-03-16T16:45:23.002Z,13.20
2019-03-16T16:47:56.677Z,13.20
2019-03-16T16:50:30.497Z,13.20
2019-03-16T16:53:04.042Z,13.20
2019-03-16T16:55:37.824Z,13.10
2019-03-16T16:58:12.311Z,13.10
2019-03-16T17:00:46.035Z,13.10
2019-03-16T17:03:20.468Z,13.10
2019-03-16T17:05:54.947Z,13.10
2019-03-16T17:08:28.764Z,13.10
2019-03-16T17:11:02.575Z,13.10
2019-03-16T17:13:36.324Z,13.00
2019-03-16T17:16:09.956Z,13.00
2019-03-16T17:18:43.574Z,13.00
2019-03-16T17:21:17.321Z,12.90
2019-03-16T17:23:50.923Z,12.80
2019-03-16T17:26:24.717Z,12.70
2019-03-16T17:28:58.354Z,12.70
2019-03-16T17:31:41.792Z,12.60
2019-03-16T17:34:05.812Z,12.60
2019-03-16T17:36:39.525Z,12.50
2019-03-16T17:39:13.373Z,12.40
2019-03-16T17:41:47.532Z,12.40
2019-03-16T17:44:21.943Z,12.40
2019-03-16T17:46:56.682Z,12.40
2019-03-16T17:49:30.500Z,12.40
2019-03-16T17:52:04.181Z,12.40
2019-03-16T17:54:37.757Z,12.30
2019-03-16T17:57:12.116Z,12.30
2019-03-16T17:59:46.500Z,12.20
2019-03-16T18:02:20.173Z,12.20
2019-03-16T18:04:53.967Z,12.20
2019-03-16T18:07:27.524Z,12.10
2019-03-16T18:10:01.135Z,12.10
2019-03-16T18:12:34.663Z,12.10
2019-03-16T18:15:15.178Z,12.10
2019-03-16T18:17:48.916Z,12.00
2019-03-16T18:20:22.689Z,11.90
2019-03-16T18:22:57.040Z,11.80
2019-03-16T18:25:30.758Z,11.80
2019-03-16T18:28:04.411Z,11.80
2019-03-16T18:30:37.986Z,11.70
2019-03-16T18:33:12.520Z,11.60
2019-03-16T18:35:46.118Z,11.60
2019-03-16T18:38:20.572Z,11.50
2019-03-16T18:40:54.170Z,11.50
2019-03-16T18:43:27.986Z,11.50
2019-03-16T18:46:02.532Z,11.40
2019-03-16T18:48:36.253Z,11.30
2019-03-16T18:51:10.141Z,11.30
2019-03-16T18:53:45.628Z,11.10
2019-03-16T18:56:19.166Z,11.00
2019-03-16T18:58:52.992Z,11.00
2019-03-16T19:01:26.544Z,10.90
2019-03-16T19:04:00.084Z,10.90
2019-03-16T19:06:33.910Z,10.80
2019-03-16T19:09:08.178Z,10.70
2019-03-16T19:11:41.693Z,10.70
2019-03-16T19:14:15.236Z,10.70
2019-03-16T19:16:48.959Z,10.70
2019-03-16T19:19:22.565Z,10.60
2019-03-16T19:21:57.015Z,10.50
2019-03-16T19:24:30.774Z,10.50
2019-03-16T19:27:04.597Z,10.50
2019-03-16T19:29:38.398Z,10.50
2019-03-16T19:32:12.931Z,10.40
2019-03-16T19:34:47.393Z,10.40
2019-03-16T19:37:21.490Z,10.40
2019-03-16T19:39:55.586Z,10.30
2019-03-16T19:42:29.275Z,10.30
2019-03-16T19:45:03.059Z,10.30
2019-03-16T19:47:36.771Z,10.30
2019-03-16T19:50:11.232Z,10.30
2019-03-16T19:52:45.061Z,10.20
2019-03-16T19:55:19.532Z,10.20
2019-03-16T19:57:54.060Z,10.10
2019-03-16T20:00:28.914Z,10.10
2019-03-16T20:03:02.619Z,10.10
2019-03-16T20:05:36.428Z,10.30
2019-03-16T20:08:10.209Z,10.40
2019-03-16T20:10:44.345Z,10.40
2019-03-16T20:13:18.145Z,10.40
2019-03-16T20:15:51.874Z,10.40
2019-03-16T20:18:25.579Z,10.40
2019-03-16T20:20:59.302Z,10.40
2019-03-16T20:23:33.043Z,10.40
2019-03-16T20:26:07.453Z,10.40
2019-03-16T20:28:41.221Z,10.40
2019-03-16T20:31:14.911Z,10.40
2019-03-16T20:33:49.050Z,10.30
2019-03-16T20:36:22.366Z,10.30
2019-03-16T20:38:56.011Z,10.20
2019-03-16T20:41:36.123Z,10.10
2019-03-16T20:44:03.594Z,10.10
2019-03-16T20:46:37.129Z,10.20
2019-03-16T20:49:11.011Z,10.40
2019-03-16T20:51:44.821Z,10.70
2019-03-16T20:54:18.414Z,11.00
2019-03-16T20:56:52.035Z,11.20
2019-03-16T20:59:25.890Z,11.60
2019-03-16T21:02:00.385Z,11.90
2019-03-16T21:04:33.979Z,11.90
2019-03-16T21:07:07.843Z,12.00
2019-03-16T21:09:42.398Z,12.10
2019-03-16T21:12:16.132Z,12.10
2019-03-16T21:14:49.742Z,12.00
2019-03-16T21:17:23.366Z,12.20
2019-03-16T21:19:57.195Z,12.20
2019-03-16T21:22:35.562Z,12.20
2019-03-16T21:25:04.733Z,12.20
2019-03-16T21:27:38.444Z,12.10
2019-03-16T21:30:14.206Z,12.10
2019-03-16T21:32:47.971Z,12.10
2019-03-16T21:35:21.543Z,12.20
2019-03-16T21:37:56.175Z,12.10
2019-03-16T21:40:29.875Z,12.00
2019-03-16T21:43:04.350Z,12.00
2019-03-16T21:45:38.068Z,12.00
2019-03-16T21:48:11.807Z,12.10
2019-03-16T21:50:45.440Z,12.10
2019-03-16T21:53:19.333Z,12.10
2019-03-16T21:55:53.195Z,12.10
2019-03-16T21:58:26.976Z,12.10
2019-03-16T22:01:00.592Z,12.10
2019-03-16T22:03:41.959Z,12.20
2019-03-16T22:06:08.900Z,12.10
2019-03-16T22:08:42.676Z,12.10
2019-03-16T22:11:16.407Z,12.10
2019-03-16T22:13:50.031Z,12.10
2019-03-16T22:16:23.599Z,11.90
2019-03-16T22:18:57.285Z,11.80
2019-03-16T22:21:30.871Z,11.70
2019-03-16T22:24:04.750Z,11.60
2019-03-16T22:26:41.008Z,11.70
2019-03-16T22:29:14.678Z,11.70
2019-03-16T22:31:49.077Z,11.70
2019-03-16T22:34:24.213Z,11.60
2019-03-16T22:36:57.996Z,11.30
2019-03-16T22:39:31.627Z,11.20
2019-03-16T22:42:05.274Z,11.10
2019-03-16T22:44:38.839Z,11.00
2019-03-16T22:47:12.689Z,10.80
2019-03-16T22:49:47.127Z,10.90
2019-03-16T22:52:20.824Z,10.90
2019-03-16T22:54:54.450Z,11.20
2019-03-16T22:57:28.130Z,11.40
2019-03-16T23:00:02.631Z,11.70
2019-03-16T23:02:36.361Z,11.70
2019-03-16T23:05:10.246Z,11.70
2019-03-16T23:07:45.619Z,11.70
2019-03-16T23:10:19.834Z,11.70
2019-03-16T23:12:53.778Z,11.80
2019-03-16T23:15:28.558Z,11.90
2019-03-16T23:18:03.428Z,12.00
2019-03-16T23:20:41.343Z,12.00
2019-03-16T23:23:16.550Z,11.70
2019-03-16T23:25:51.675Z,11.70
2019-03-16T23:28:26.167Z,11.70
2019-03-16T23:31:01.766Z,11.60
2019-03-16T23:33:37.097Z,11.60
2019-03-16T23:36:10.960Z,11.50
2019-03-16T23:38:45.623Z,11.40
2019-03-16T23:41:19.341Z,11.30
2019-03-16T23:43:53.810Z,11.10
2019-03-16T23:46:29.311Z,10.80
2019-03-16T23:49:05.088Z,10.80
2019-03-16T23:51:40.380Z,10.70
2019-03-16T23:54:14.154Z,10.60
2019-03-16T23:56:47.880Z,10.50
2019-03-16T23:59:23.266Z,10.30
